sensor_id;sensor_type;location;lat;lon;timestamp;P1;durP1;ratioP1;P2;durP2;ratioP2
10309;SDS011;5200;43.236;27.986;2023-02-28T00:01:08;6.22;;;5.63;;
10309;SDS011;5200;43.236;27.986;2023-02-28T00:03:35;6.20;;;4.85;;
10309;SDS011;5200;43.236;27.986;2023-02-28T00:06:02;5.18;;;4.68;;
10309;SDS011;5200;43.236;27.986;2023-02-28T00:08:30;5.65;;;5.15;;
10309;SDS011;5200;43.236;27.986;2023-02-28T00:11:00;5.60;;;4.93;;
10309;SDS011;5200;43.236;27.986;2023-02-28T00:13:27;6.32;;;5.72;;
10309;SDS011;5200;43.236;27.986;2023-02-28T00:16:01;6.18;;;5.65;;
10309;SDS011;5200;43.236;27.986;2023-02-28T00:18:30;6.97;;;5.65;;
10309;SDS011;5200;43.236;27.986;2023-02-28T00:20:57;6.43;;;5.30;;
10309;SDS011;5200;43.236;27.986;2023-02-28T00:23:25;6.40;;;5.30;;
10309;SDS011;5200;43.236;27.986;2023-02-28T00:25:52;7.70;;;5.85;;
10309;SDS011;5200;43.236;27.986;2023-02-28T00:28:19;5.53;;;5.03;;
10309;SDS011;5200;43.236;27.986;2023-02-28T00:30:47;5.45;;;4.57;;
10309;SDS011;5200;43.236;27.986;2023-02-28T00:33:14;5.63;;;5.13;;
10309;SDS011;5200;43.236;27.986;2023-02-28T00:35:43;4.93;;;4.45;;
10309;SDS011;5200;43.236;27.986;2023-02-28T00:38:11;6.60;;;4.85;;
10309;SDS011;5200;43.236;27.986;2023-02-28T00:40:38;5.63;;;4.88;;
10309;SDS011;5200;43.236;27.986;2023-02-28T00:43:05;5.95;;;5.00;;
10309;SDS011;5200;43.236;27.986;2023-02-28T00:45:32;6.10;;;5.15;;
10309;SDS011;5200;43.236;27.986;2023-02-28T00:47:58;5.22;;;4.72;;
10309;SDS011;5200;43.236;27.986;2023-02-28T00:50:25;5.68;;;4.97;;
10309;SDS011;5200;43.236;27.986;2023-02-28T00:52:53;6.82;;;4.80;;
10309;SDS011;5200;43.236;27.986;2023-02-28T00:55:20;5.43;;;4.93;;
10309;SDS011;5200;43.236;27.986;2023-02-28T00:57:47;5.55;;;5.00;;
10309;SDS011;5200;43.236;27.986;2023-02-28T01:00:14;5.32;;;4.82;;
10309;SDS011;5200;43.236;27.986;2023-02-28T01:02:41;5.10;;;4.70;;
10309;SDS011;5200;43.236;27.986;2023-02-28T01:05:08;6.82;;;5.10;;
10309;SDS011;5200;43.236;27.986;2023-02-28T01:07:35;6.25;;;4.95;;
10309;SDS011;5200;43.236;27.986;2023-02-28T01:10:03;5.75;;;5.10;;
10309;SDS011;5200;43.236;27.986;2023-02-28T01:12:31;5.80;;;5.28;;
10309;SDS011;5200;43.236;27.986;2023-02-28T01:14:58;5.47;;;4.97;;
10309;SDS011;5200;43.236;27.986;2023-02-28T01:17:25;5.20;;;4.68;;
10309;SDS011;5200;43.236;27.986;2023-02-28T01:19:52;5.32;;;4.82;;
10309;SDS011;5200;43.236;27.986;2023-02-28T01:22:20;6.72;;;6.05;;
10309;SDS011;5200;43.236;27.986;2023-02-28T01:24:47;5.50;;;5.00;;
10309;SDS011;5200;43.236;27.986;2023-02-28T01:27:15;6.10;;;5.50;;
10309;SDS011;5200;43.236;27.986;2023-02-28T01:29:42;5.50;;;5.00;;
10309;SDS011;5200;43.236;27.986;2023-02-28T01:32:09;6.10;;;5.50;;
10309;SDS011;5200;43.236;27.986;2023-02-28T01:34:36;5.93;;;5.28;;
10309;SDS011;5200;43.236;27.986;2023-02-28T01:37:03;5.97;;;5.25;;
10309;SDS011;5200;43.236;27.986;2023-02-28T01:39:30;6.60;;;5.60;;
10309;SDS011;5200;43.236;27.986;2023-02-28T01:41:57;6.03;;;5.47;;
10309;SDS011;5200;43.236;27.986;2023-02-28T01:47:25;6.55;;;5.90;;
10309;SDS011;5200;43.236;27.986;2023-02-28T01:49:55;6.30;;;5.70;;
10309;SDS011;5200;43.236;27.986;2023-02-28T01:52:23;6.78;;;5.18;;
10309;SDS011;5200;43.236;27.986;2023-02-28T01:54:51;6.60;;;6.00;;
10309;SDS011;5200;43.236;27.986;2023-02-28T01:57:21;6.80;;;6.03;;
10309;SDS011;5200;43.236;27.986;2023-02-28T01:59:51;6.20;;;5.60;;
10309;SDS011;5200;43.236;27.986;2023-02-28T02:02:25;6.03;;;5.38;;
10309;SDS011;5200;43.236;27.986;2023-02-28T02:04:54;5.05;;;4.55;;
10309;SDS011;5200;43.236;27.986;2023-02-28T02:07:26;5.63;;;4.35;;
10309;SDS011;5200;43.236;27.986;2023-02-28T02:10:02;4.50;;;4.10;;
10309;SDS011;5200;43.236;27.986;2023-02-28T02:12:34;4.47;;;4.07;;
10309;SDS011;5200;43.236;27.986;2023-02-28T02:15:11;3.95;;;3.53;;
10309;SDS011;5200;43.236;27.986;2023-02-28T02:17:44;5.63;;;5.13;;
10309;SDS011;5200;43.236;27.986;2023-02-28T02:20:38;4.18;;;3.80;;
10309;SDS011;5200;43.236;27.986;2023-02-28T02:23:26;3.92;;;3.58;;
10309;SDS011;5200;43.236;27.986;2023-02-28T02:26:01;5.20;;;4.15;;
10309;SDS011;5200;43.236;27.986;2023-02-28T02:28:51;4.20;;;3.72;;
10309;SDS011;5200;43.236;27.986;2023-02-28T02:31:33;4.38;;;3.88;;
10309;SDS011;5200;43.236;27.986;2023-02-28T02:34:30;5.05;;;4.20;;
10309;SDS011;5200;43.236;27.986;2023-02-28T02:37:13;4.10;;;3.70;;
10309;SDS011;5200;43.236;27.986;2023-02-28T02:39:48;4.13;;;3.72;;
10309;SDS011;5200;43.236;27.986;2023-02-28T02:42:21;4.75;;;4.03;;
10309;SDS011;5200;43.236;27.986;2023-02-28T02:44:56;4.53;;;4.13;;
10309;SDS011;5200;43.236;27.986;2023-02-28T02:47:29;3.67;;;3.25;;
10309;SDS011;5200;43.236;27.986;2023-02-28T02:49:59;4.30;;;3.90;;
10309;SDS011;5200;43.236;27.986;2023-02-28T02:52:33;5.63;;;4.20;;
10309;SDS011;5200;43.236;27.986;2023-02-28T02:55:03;5.43;;;3.55;;
10309;SDS011;5200;43.236;27.986;2023-02-28T02:57:33;4.20;;;3.80;;
10309;SDS011;5200;43.236;27.986;2023-02-28T03:00:05;3.92;;;3.63;;
10309;SDS011;5200;43.236;27.986;2023-02-28T03:02:34;3.72;;;3.42;;
10309;SDS011;5200;43.236;27.986;2023-02-28T03:05:06;3.97;;;3.58;;
10309;SDS011;5200;43.236;27.986;2023-02-28T03:07:38;4.57;;;4.18;;
10309;SDS011;5200;43.236;27.986;2023-02-28T03:13:08;3.65;;;3.35;;
10309;SDS011;5200;43.236;27.986;2023-02-28T03:16:02;4.30;;;3.90;;
10309;SDS011;5200;43.236;27.986;2023-02-28T03:18:51;4.22;;;3.90;;
10309;SDS011;5200;43.236;27.986;2023-02-28T03:21:25;4.90;;;4.50;;
10309;SDS011;5200;43.236;27.986;2023-02-28T03:24:01;5.20;;;4.70;;
10309;SDS011;5200;43.236;27.986;2023-02-28T03:26:32;5.20;;;4.70;;
10309;SDS011;5200;43.236;27.986;2023-02-28T03:29:03;5.07;;;4.57;;
10309;SDS011;5200;43.236;27.986;2023-02-28T03:31:38;4.65;;;4.10;;
10309;SDS011;5200;43.236;27.986;2023-02-28T03:34:08;5.90;;;5.35;;
10309;SDS011;5200;43.236;27.986;2023-02-28T03:36:41;5.55;;;5.05;;
10309;SDS011;5200;43.236;27.986;2023-02-28T03:39:13;5.25;;;4.72;;
10309;SDS011;5200;43.236;27.986;2023-02-28T03:41:42;6.38;;;5.35;;
10309;SDS011;5200;43.236;27.986;2023-02-28T03:44:16;6.13;;;5.53;;
10309;SDS011;5200;43.236;27.986;2023-02-28T03:46:48;8.70;;;5.90;;
10309;SDS011;5200;43.236;27.986;2023-02-28T03:49:24;6.38;;;5.78;;
10309;SDS011;5200;43.236;27.986;2023-02-28T03:51:56;6.57;;;5.97;;
10309;SDS011;5200;43.236;27.986;2023-02-28T03:54:27;6.72;;;6.07;;
10309;SDS011;5200;43.236;27.986;2023-02-28T03:56:58;6.72;;;5.95;;
10309;SDS011;5200;43.236;27.986;2023-02-28T03:59:30;7.70;;;6.30;;
10309;SDS011;5200;43.236;27.986;2023-02-28T04:02:02;6.65;;;5.95;;
10309;SDS011;5200;43.236;27.986;2023-02-28T04:04:29;7.50;;;6.30;;
10309;SDS011;5200;43.236;27.986;2023-02-28T04:07:02;6.63;;;5.82;;
10309;SDS011;5200;43.236;27.986;2023-02-28T04:09:31;7.22;;;6.53;;
10309;SDS011;5200;43.236;27.986;2023-02-28T04:11:58;7.55;;;6.75;;
10309;SDS011;5200;43.236;27.986;2023-02-28T04:14:25;7.88;;;5.82;;
10309;SDS011;5200;43.236;27.986;2023-02-28T04:16:53;7.20;;;6.50;;
10309;SDS011;5200;43.236;27.986;2023-02-28T04:19:19;6.82;;;6.13;;
10309;SDS011;5200;43.236;27.986;2023-02-28T04:21:47;6.00;;;5.40;;
10309;SDS011;5200;43.236;27.986;2023-02-28T04:24:17;6.30;;;5.68;;
10309;SDS011;5200;43.236;27.986;2023-02-28T04:26:45;7.68;;;6.07;;
10309;SDS011;5200;43.236;27.986;2023-02-28T04:29:17;7.43;;;6.57;;
10309;SDS011;5200;43.236;27.986;2023-02-28T04:31:45;6.20;;;4.97;;
10309;SDS011;5200;43.236;27.986;2023-02-28T04:34:12;8.05;;;7.25;;
10309;SDS011;5200;43.236;27.986;2023-02-28T04:36:39;8.15;;;7.10;;
10309;SDS011;5200;43.236;27.986;2023-02-28T04:39:06;8.35;;;6.82;;
10309;SDS011;5200;43.236;27.986;2023-02-28T04:41:36;12.85;;;7.78;;
10309;SDS011;5200;43.236;27.986;2023-02-28T04:44:03;8.40;;;6.68;;
10309;SDS011;5200;43.236;27.986;2023-02-28T04:46:30;8.95;;;7.22;;
10309;SDS011;5200;43.236;27.986;2023-02-28T04:48:57;9.27;;;7.68;;
10309;SDS011;5200;43.236;27.986;2023-02-28T04:51:24;10.55;;;8.00;;
10309;SDS011;5200;43.236;27.986;2023-02-28T04:53:51;10.68;;;8.13;;
10309;SDS011;5200;43.236;27.986;2023-02-28T04:56:18;12.30;;;9.13;;
10309;SDS011;5200;43.236;27.986;2023-02-28T04:58:46;11.10;;;9.15;;
10309;SDS011;5200;43.236;27.986;2023-02-28T05:01:18;11.98;;;9.18;;
10309;SDS011;5200;43.236;27.986;2023-02-28T05:03:47;12.35;;;8.80;;
10309;SDS011;5200;43.236;27.986;2023-02-28T05:06:15;13.43;;;9.13;;
10309;SDS011;5200;43.236;27.986;2023-02-28T05:08:42;17.08;;;10.35;;
10309;SDS011;5200;43.236;27.986;2023-02-28T05:11:13;16.80;;;9.13;;
10309;SDS011;5200;43.236;27.986;2023-02-28T05:13:42;12.40;;;9.60;;
10309;SDS011;5200;43.236;27.986;2023-02-28T05:16:10;14.35;;;9.77;;
10309;SDS011;5200;43.236;27.986;2023-02-28T05:18:37;14.15;;;10.75;;
10309;SDS011;5200;43.236;27.986;2023-02-28T05:21:04;13.02;;;9.90;;
10309;SDS011;5200;43.236;27.986;2023-02-28T05:23:31;15.13;;;10.95;;
10309;SDS011;5200;43.236;27.986;2023-02-28T05:25:58;18.50;;;11.48;;
10309;SDS011;5200;43.236;27.986;2023-02-28T05:28:25;17.33;;;10.80;;
10309;SDS011;5200;43.236;27.986;2023-02-28T05:30:52;15.85;;;11.15;;
10309;SDS011;5200;43.236;27.986;2023-02-28T05:33:20;14.55;;;9.98;;
10309;SDS011;5200;43.236;27.986;2023-02-28T05:35:47;15.15;;;11.00;;
10309;SDS011;5200;43.236;27.986;2023-02-28T05:38:14;15.85;;;10.30;;
10309;SDS011;5200;43.236;27.986;2023-02-28T05:40:41;16.02;;;11.10;;
10309;SDS011;5200;43.236;27.986;2023-02-28T05:43:09;16.23;;;11.13;;
10309;SDS011;5200;43.236;27.986;2023-02-28T05:45:36;17.45;;;11.68;;
10309;SDS011;5200;43.236;27.986;2023-02-28T05:48:03;15.75;;;12.32;;
10309;SDS011;5200;43.236;27.986;2023-02-28T05:50:32;17.73;;;12.57;;
10309;SDS011;5200;43.236;27.986;2023-02-28T05:52:59;18.77;;;13.43;;
10309;SDS011;5200;43.236;27.986;2023-02-28T05:55:25;18.05;;;13.50;;
10309;SDS011;5200;43.236;27.986;2023-02-28T05:57:52;18.88;;;13.75;;
10309;SDS011;5200;43.236;27.986;2023-02-28T06:00:19;21.92;;;13.57;;
10309;SDS011;5200;43.236;27.986;2023-02-28T06:02:46;19.00;;;12.48;;
10309;SDS011;5200;43.236;27.986;2023-02-28T06:05:14;18.75;;;12.32;;
10309;SDS011;5200;43.236;27.986;2023-02-28T06:07:44;20.02;;;12.75;;
10309;SDS011;5200;43.236;27.986;2023-02-28T06:10:11;37.90;;;15.25;;
10309;SDS011;5200;43.236;27.986;2023-02-28T06:12:38;22.45;;;15.10;;
10309;SDS011;5200;43.236;27.986;2023-02-28T06:15:07;18.30;;;11.57;;
10309;SDS011;5200;43.236;27.986;2023-02-28T06:17:34;21.77;;;14.45;;
10309;SDS011;5200;43.236;27.986;2023-02-28T06:20:01;18.85;;;12.38;;
10309;SDS011;5200;43.236;27.986;2023-02-28T06:22:27;19.40;;;11.63;;
10309;SDS011;5200;43.236;27.986;2023-02-28T06:24:56;16.27;;;9.82;;
10309;SDS011;5200;43.236;27.986;2023-02-28T06:27:23;0.10;;;0.10;;
10309;SDS011;5200;43.236;27.986;2023-02-28T06:29:53;0.00;;;0.00;;
10309;SDS011;5200;43.236;27.986;2023-02-28T06:32:20;0.08;;;0.08;;
10309;SDS011;5200;43.236;27.986;2023-02-28T06:34:47;0.10;;;0.10;;
10309;SDS011;5200;43.236;27.986;2023-02-28T06:37:15;0.03;;;0.03;;
10309;SDS011;5200;43.236;27.986;2023-02-28T06:39:42;0.00;;;0.00;;
10309;SDS011;5200;43.236;27.986;2023-02-28T06:42:11;0.10;;;0.10;;
10309;SDS011;5200;43.236;27.986;2023-02-28T06:44:38;0.00;;;0.00;;
10309;SDS011;5200;43.236;27.986;2023-02-28T06:47:05;0.03;;;0.03;;
10309;SDS011;5200;43.236;27.986;2023-02-28T06:49:33;0.32;;;0.32;;
10309;SDS011;5200;43.236;27.986;2023-02-28T06:52:01;0.05;;;0.05;;
10309;SDS011;5200;43.236;27.986;2023-02-28T06:54:28;0.20;;;0.20;;
10309;SDS011;5200;43.236;27.986;2023-02-28T06:56:55;0.10;;;0.10;;
10309;SDS011;5200;43.236;27.986;2023-02-28T06:59:23;0.10;;;0.10;;
10309;SDS011;5200;43.236;27.986;2023-02-28T07:01:50;0.00;;;0.00;;
10309;SDS011;5200;43.236;27.986;2023-02-28T07:04:17;0.00;;;0.00;;
10309;SDS011;5200;43.236;27.986;2023-02-28T07:06:44;0.08;;;0.08;;
10309;SDS011;5200;43.236;27.986;2023-02-28T07:09:10;0.00;;;0.00;;
10309;SDS011;5200;43.236;27.986;2023-02-28T07:11:39;0.00;;;0.00;;
10309;SDS011;5200;43.236;27.986;2023-02-28T07:14:08;0.05;;;0.05;;
10309;SDS011;5200;43.236;27.986;2023-02-28T07:16:36;0.00;;;0.00;;
10309;SDS011;5200;43.236;27.986;2023-02-28T07:19:03;0.05;;;0.05;;
10309;SDS011;5200;43.236;27.986;2023-02-28T07:21:30;0.00;;;0.00;;
10309;SDS011;5200;43.236;27.986;2023-02-28T07:23:57;0.10;;;0.10;;
10309;SDS011;5200;43.236;27.986;2023-02-28T07:26:24;0.00;;;0.00;;
10309;SDS011;5200;43.236;27.986;2023-02-28T07:28:50;0.10;;;0.10;;
10309;SDS011;5200;43.236;27.986;2023-02-28T07:31:18;0.00;;;0.00;;
10309;SDS011;5200;43.236;27.986;2023-02-28T07:33:46;0.10;;;0.10;;
10309;SDS011;5200;43.236;27.986;2023-02-28T07:36:13;0.00;;;0.00;;
10309;SDS011;5200;43.236;27.986;2023-02-28T07:38:42;0.00;;;0.00;;
10309;SDS011;5200;43.236;27.986;2023-02-28T07:41:10;0.10;;;0.10;;
10309;SDS011;5200;43.236;27.986;2023-02-28T07:43:37;0.08;;;0.08;;
10309;SDS011;5200;43.236;27.986;2023-02-28T07:46:05;0.00;;;0.00;;
10309;SDS011;5200;43.236;27.986;2023-02-28T07:48:35;0.00;;;0.00;;
10309;SDS011;5200;43.236;27.986;2023-02-28T07:51:03;0.20;;;0.20;;
10309;SDS011;5200;43.236;27.986;2023-02-28T07:53:31;0.00;;;0.00;;
10309;SDS011;5200;43.236;27.986;2023-02-28T07:55:58;0.00;;;0.00;;
10309;SDS011;5200;43.236;27.986;2023-02-28T07:58:27;0.40;;;0.40;;
10309;SDS011;5200;43.236;27.986;2023-02-28T08:00:55;1.38;;;0.77;;
10309;SDS011;5200;43.236;27.986;2023-02-28T08:03:22;0.00;;;0.00;;
10309;SDS011;5200;43.236;27.986;2023-02-28T08:05:50;0.10;;;0.10;;
10309;SDS011;5200;43.236;27.986;2023-02-28T08:08:19;0.05;;;0.05;;
10309;SDS011;5200;43.236;27.986;2023-02-28T08:10:46;0.00;;;0.00;;
10309;SDS011;5200;43.236;27.986;2023-02-28T08:13:13;0.00;;;0.00;;
10309;SDS011;5200;43.236;27.986;2023-02-28T08:15:40;0.00;;;0.00;;
10309;SDS011;5200;43.236;27.986;2023-02-28T08:18:08;0.10;;;0.10;;
10309;SDS011;5200;43.236;27.986;2023-02-28T08:20:35;0.00;;;0.00;;
10309;SDS011;5200;43.236;27.986;2023-02-28T08:23:01;0.00;;;0.00;;
10309;SDS011;5200;43.236;27.986;2023-02-28T08:25:32;0.00;;;0.00;;
10309;SDS011;5200;43.236;27.986;2023-02-28T08:27:59;1.23;;;1.13;;
10309;SDS011;5200;43.236;27.986;2023-02-28T08:30:26;0.10;;;0.10;;
10309;SDS011;5200;43.236;27.986;2023-02-28T08:32:53;0.10;;;0.10;;
10309;SDS011;5200;43.236;27.986;2023-02-28T08:35:20;0.00;;;0.00;;
10309;SDS011;5200;43.236;27.986;2023-02-28T08:37:47;0.00;;;0.00;;
10309;SDS011;5200;43.236;27.986;2023-02-28T08:40:14;0.00;;;0.00;;
10309;SDS011;5200;43.236;27.986;2023-02-28T08:42:44;0.00;;;0.00;;
10309;SDS011;5200;43.236;27.986;2023-02-28T08:45:12;0.08;;;0.08;;
10309;SDS011;5200;43.236;27.986;2023-02-28T08:47:40;0.00;;;0.00;;
10309;SDS011;5200;43.236;27.986;2023-02-28T08:50:07;0.00;;;0.00;;
10309;SDS011;5200;43.236;27.986;2023-02-28T08:52:35;0.00;;;0.00;;
10309;SDS011;5200;43.236;27.986;2023-02-28T08:55:03;0.00;;;0.00;;
10309;SDS011;5200;43.236;27.986;2023-02-28T08:57:31;0.00;;;0.00;;
10309;SDS011;5200;43.236;27.986;2023-02-28T08:59:59;0.00;;;0.00;;
10309;SDS011;5200;43.236;27.986;2023-02-28T09:02:29;0.10;;;0.10;;
10309;SDS011;5200;43.236;27.986;2023-02-28T09:04:56;0.00;;;0.00;;
10309;SDS011;5200;43.236;27.986;2023-02-28T09:07:23;0.00;;;0.00;;
10309;SDS011;5200;43.236;27.986;2023-02-28T09:09:50;0.00;;;0.00;;
10309;SDS011;5200;43.236;27.986;2023-02-28T09:12:20;0.00;;;0.00;;
10309;SDS011;5200;43.236;27.986;2023-02-28T09:14:48;0.00;;;0.00;;
10309;SDS011;5200;43.236;27.986;2023-02-28T09:17:16;0.00;;;0.00;;
10309;SDS011;5200;43.236;27.986;2023-02-28T09:19:43;0.00;;;0.00;;
10309;SDS011;5200;43.236;27.986;2023-02-28T09:22:10;0.00;;;0.00;;
10309;SDS011;5200;43.236;27.986;2023-02-28T09:24:37;0.15;;;0.15;;
10309;SDS011;5200;43.236;27.986;2023-02-28T09:27:05;0.00;;;0.00;;
10309;SDS011;5200;43.236;27.986;2023-02-28T09:29:34;0.00;;;0.00;;
10309;SDS011;5200;43.236;27.986;2023-02-28T09:32:01;0.00;;;0.00;;
10309;SDS011;5200;43.236;27.986;2023-02-28T09:34:32;0.00;;;0.00;;
10309;SDS011;5200;43.236;27.986;2023-02-28T09:36:58;0.00;;;0.00;;
10309;SDS011;5200;43.236;27.986;2023-02-28T09:39:25;0.08;;;0.08;;
10309;SDS011;5200;43.236;27.986;2023-02-28T09:41:54;0.00;;;0.00;;
10309;SDS011;5200;43.236;27.986;2023-02-28T09:44:23;0.00;;;0.00;;
10309;SDS011;5200;43.236;27.986;2023-02-28T09:46:56;0.00;;;0.00;;
10309;SDS011;5200;43.236;27.986;2023-02-28T09:49:29;0.00;;;0.00;;
10309;SDS011;5200;43.236;27.986;2023-02-28T09:52:05;0.00;;;0.00;;
10309;SDS011;5200;43.236;27.986;2023-02-28T09:54:35;0.00;;;0.00;;
10309;SDS011;5200;43.236;27.986;2023-02-28T09:57:05;0.10;;;0.10;;
10309;SDS011;5200;43.236;27.986;2023-02-28T09:59:39;0.10;;;0.10;;
10309;SDS011;5200;43.236;27.986;2023-02-28T10:02:38;0.00;;;0.00;;
10309;SDS011;5200;43.236;27.986;2023-02-28T10:05:16;0.00;;;0.00;;
10309;SDS011;5200;43.236;27.986;2023-02-28T10:07:50;0.20;;;0.20;;
10309;SDS011;5200;43.236;27.986;2023-02-28T10:10:27;0.00;;;0.00;;
10309;SDS011;5200;43.236;27.986;2023-02-28T10:12:59;0.20;;;0.20;;
10309;SDS011;5200;43.236;27.986;2023-02-28T10:15:29;0.00;;;0.00;;
10309;SDS011;5200;43.236;27.986;2023-02-28T10:17:59;0.85;;;0.77;;
10309;SDS011;5200;43.236;27.986;2023-02-28T10:20:30;0.00;;;0.00;;
10309;SDS011;5200;43.236;27.986;2023-02-28T10:23:02;0.00;;;0.00;;
10309;SDS011;5200;43.236;27.986;2023-02-28T10:25:36;0.00;;;0.00;;
10309;SDS011;5200;43.236;27.986;2023-02-28T10:28:07;0.08;;;0.08;;
10309;SDS011;5200;43.236;27.986;2023-02-28T10:30:37;0.00;;;0.00;;
10309;SDS011;5200;43.236;27.986;2023-02-28T10:33:08;0.05;;;0.05;;
10309;SDS011;5200;43.236;27.986;2023-02-28T10:35:46;0.08;;;0.08;;
10309;SDS011;5200;43.236;27.986;2023-02-28T10:38:16;0.10;;;0.10;;
10309;SDS011;5200;43.236;27.986;2023-02-28T10:40:44;0.00;;;0.00;;
10309;SDS011;5200;43.236;27.986;2023-02-28T10:43:18;0.90;;;0.90;;
10309;SDS011;5200;43.236;27.986;2023-02-28T10:45:57;0.00;;;0.00;;
10309;SDS011;5200;43.236;27.986;2023-02-28T10:48:29;0.00;;;0.00;;
10309;SDS011;5200;43.236;27.986;2023-02-28T10:51:00;0.10;;;0.10;;
10309;SDS011;5200;43.236;27.986;2023-02-28T10:53:33;0.00;;;0.00;;
10309;SDS011;5200;43.236;27.986;2023-02-28T10:56:05;0.10;;;0.10;;
10309;SDS011;5200;43.236;27.986;2023-02-28T10:58:48;0.00;;;0.00;;
10309;SDS011;5200;43.236;27.986;2023-02-28T11:01:18;0.00;;;0.00;;
10309;SDS011;5200;43.236;27.986;2023-02-28T11:03:46;0.00;;;0.00;;
10309;SDS011;5200;43.236;27.986;2023-02-28T11:06:19;0.00;;;0.00;;
10309;SDS011;5200;43.236;27.986;2023-02-28T11:08:49;0.00;;;0.00;;
10309;SDS011;5200;43.236;27.986;2023-02-28T11:11:18;0.10;;;0.10;;
10309;SDS011;5200;43.236;27.986;2023-02-28T11:13:47;0.00;;;0.00;;
10309;SDS011;5200;43.236;27.986;2023-02-28T11:16:16;0.00;;;0.00;;
10309;SDS011;5200;43.236;27.986;2023-02-28T11:18:44;0.00;;;0.00;;
10309;SDS011;5200;43.236;27.986;2023-02-28T11:21:15;0.00;;;0.00;;
10309;SDS011;5200;43.236;27.986;2023-02-28T11:23:47;0.00;;;0.00;;
10309;SDS011;5200;43.236;27.986;2023-02-28T11:26:16;0.00;;;0.00;;
10309;SDS011;5200;43.236;27.986;2023-02-28T11:29:03;0.00;;;0.00;;
10309;SDS011;5200;43.236;27.986;2023-02-28T11:31:36;0.30;;;0.30;;
10309;SDS011;5200;43.236;27.986;2023-02-28T11:34:07;0.00;;;0.00;;
10309;SDS011;5200;43.236;27.986;2023-02-28T11:36:51;0.00;;;0.00;;
10309;SDS011;5200;43.236;27.986;2023-02-28T11:39:21;0.00;;;0.00;;
10309;SDS011;5200;43.236;27.986;2023-02-28T11:41:57;0.00;;;0.00;;
10309;SDS011;5200;43.236;27.986;2023-02-28T11:44:40;0.00;;;0.00;;
10309;SDS011;5200;43.236;27.986;2023-02-28T11:47:17;0.00;;;0.00;;
10309;SDS011;5200;43.236;27.986;2023-02-28T11:49:55;0.00;;;0.00;;
10309;SDS011;5200;43.236;27.986;2023-02-28T11:52:40;0.00;;;0.00;;
10309;SDS011;5200;43.236;27.986;2023-02-28T11:55:15;0.00;;;0.00;;
10309;SDS011;5200;43.236;27.986;2023-02-28T11:57:52;0.00;;;0.00;;
10309;SDS011;5200;43.236;27.986;2023-02-28T12:00:39;0.00;;;0.00;;
10309;SDS011;5200;43.236;27.986;2023-02-28T12:03:17;0.05;;;0.05;;
10309;SDS011;5200;43.236;27.986;2023-02-28T12:05:55;0.00;;;0.00;;
10309;SDS011;5200;43.236;27.986;2023-02-28T12:08:43;0.00;;;0.00;;
10309;SDS011;5200;43.236;27.986;2023-02-28T12:11:19;0.10;;;0.10;;
10309;SDS011;5200;43.236;27.986;2023-02-28T12:14:01;0.00;;;0.00;;
10309;SDS011;5200;43.236;27.986;2023-02-28T12:16:45;11.48;;;7.78;;
10309;SDS011;5200;43.236;27.986;2023-02-28T12:19:23;8.90;;;6.90;;
10309;SDS011;5200;43.236;27.986;2023-02-28T12:25:15;9.43;;;7.40;;
10309;SDS011;5200;43.236;27.986;2023-02-28T12:28:01;11.95;;;6.85;;
10309;SDS011;5200;43.236;27.986;2023-02-28T12:30:29;9.85;;;7.55;;
10309;SDS011;5200;43.236;27.986;2023-02-28T12:33:01;10.30;;;7.85;;
10309;SDS011;5200;43.236;27.986;2023-02-28T12:35:32;13.57;;;8.57;;
10309;SDS011;5200;43.236;27.986;2023-02-28T12:38:04;10.55;;;8.57;;
10309;SDS011;5200;43.236;27.986;2023-02-28T12:40:42;14.93;;;8.70;;
10309;SDS011;5200;43.236;27.986;2023-02-28T12:43:13;14.00;;;9.02;;
10309;SDS011;5200;43.236;27.986;2023-02-28T12:45:43;11.35;;;8.68;;
10309;SDS011;5200;43.236;27.986;2023-02-28T12:48:15;11.35;;;7.53;;
10309;SDS011;5200;43.236;27.986;2023-02-28T12:50:47;12.68;;;9.10;;
10309;SDS011;5200;43.236;27.986;2023-02-28T12:53:17;13.60;;;9.40;;
10309;SDS011;5200;43.236;27.986;2023-02-28T12:55:54;11.07;;;9.15;;
10309;SDS011;5200;43.236;27.986;2023-02-28T12:58:31;15.30;;;8.55;;
10309;SDS011;5200;43.236;27.986;2023-02-28T13:01:11;12.30;;;8.95;;
10309;SDS011;5200;43.236;27.986;2023-02-28T13:06:59;9.05;;;6.88;;
10309;SDS011;5200;43.236;27.986;2023-02-28T13:09:40;12.77;;;9.00;;
10309;SDS011;5200;43.236;27.986;2023-02-28T13:12:13;14.63;;;9.63;;
10309;SDS011;5200;43.236;27.986;2023-02-28T13:14:42;12.05;;;8.45;;
10309;SDS011;5200;43.236;27.986;2023-02-28T13:17:10;12.32;;;8.27;;
10309;SDS011;5200;43.236;27.986;2023-02-28T13:19:39;11.52;;;9.27;;
10309;SDS011;5200;43.236;27.986;2023-02-28T13:22:16;11.32;;;9.13;;
10309;SDS011;5200;43.236;27.986;2023-02-28T13:24:47;14.32;;;9.45;;
10309;SDS011;5200;43.236;27.986;2023-02-28T13:30:02;13.70;;;10.27;;
10309;SDS011;5200;43.236;27.986;2023-02-28T13:33:26;12.15;;;9.10;;
10309;SDS011;5200;43.236;27.986;2023-02-28T13:36:08;12.68;;;8.38;;
10309;SDS011;5200;43.236;27.986;2023-02-28T13:38:38;18.42;;;10.07;;
10309;SDS011;5200;43.236;27.986;2023-02-28T13:44:10;17.45;;;10.68;;
10309;SDS011;5200;43.236;27.986;2023-02-28T13:49:34;15.80;;;9.43;;
10309;SDS011;5200;43.236;27.986;2023-02-28T13:52:02;12.57;;;10.07;;
10309;SDS011;5200;43.236;27.986;2023-02-28T13:54:44;15.07;;;10.85;;
10309;SDS011;5200;43.236;27.986;2023-02-28T13:57:25;17.83;;;11.30;;
10309;SDS011;5200;43.236;27.986;2023-02-28T14:00:13;15.40;;;10.93;;
10309;SDS011;5200;43.236;27.986;2023-02-28T14:02:52;17.17;;;10.05;;
10309;SDS011;5200;43.236;27.986;2023-02-28T14:05:32;15.48;;;9.63;;
10309;SDS011;5200;43.236;27.986;2023-02-28T14:08:04;21.58;;;11.18;;
10309;SDS011;5200;43.236;27.986;2023-02-28T14:10:34;16.35;;;11.10;;
10309;SDS011;5200;43.236;27.986;2023-02-28T14:13:12;13.57;;;9.57;;
10309;SDS011;5200;43.236;27.986;2023-02-28T14:15:56;13.50;;;9.98;;
10309;SDS011;5200;43.236;27.986;2023-02-28T14:18:27;16.92;;;10.60;;
10309;SDS011;5200;43.236;27.986;2023-02-28T14:21:08;13.65;;;10.38;;
10309;SDS011;5200;43.236;27.986;2023-02-28T14:32:37;32.42;;;16.33;;
10309;SDS011;5200;43.236;27.986;2023-02-28T14:35:16;18.70;;;10.02;;
10309;SDS011;5200;43.236;27.986;2023-02-28T14:37:54;13.48;;;10.48;;
10309;SDS011;5200;43.236;27.986;2023-02-28T14:40:25;11.85;;;9.00;;
10309;SDS011;5200;43.236;27.986;2023-02-28T14:42:56;15.60;;;9.63;;
10309;SDS011;5200;43.236;27.986;2023-02-28T14:45:24;10.85;;;8.48;;
10309;SDS011;5200;43.236;27.986;2023-02-28T14:47:56;13.88;;;9.65;;
10309;SDS011;5200;43.236;27.986;2023-02-28T14:50:26;16.63;;;8.82;;
10309;SDS011;5200;43.236;27.986;2023-02-28T14:52:57;13.82;;;9.20;;
10309;SDS011;5200;43.236;27.986;2023-02-28T14:55:26;14.73;;;9.18;;
10309;SDS011;5200;43.236;27.986;2023-02-28T14:57:55;17.40;;;9.77;;
10309;SDS011;5200;43.236;27.986;2023-02-28T15:00:24;16.02;;;9.75;;
10309;SDS011;5200;43.236;27.986;2023-02-28T15:02:52;13.00;;;8.68;;
10309;SDS011;5200;43.236;27.986;2023-02-28T15:05:26;13.38;;;9.23;;
10309;SDS011;5200;43.236;27.986;2023-02-28T15:08:02;18.48;;;8.75;;
10309;SDS011;5200;43.236;27.986;2023-02-28T15:10:36;17.63;;;9.82;;
10309;SDS011;5200;43.236;27.986;2023-02-28T15:13:05;12.75;;;9.07;;
10309;SDS011;5200;43.236;27.986;2023-02-28T15:15:41;15.48;;;8.65;;
10309;SDS011;5200;43.236;27.986;2023-02-28T15:18:13;12.57;;;9.27;;
10309;SDS011;5200;43.236;27.986;2023-02-28T15:20:46;15.98;;;9.82;;
10309;SDS011;5200;43.236;27.986;2023-02-28T15:23:13;17.65;;;11.00;;
10309;SDS011;5200;43.236;27.986;2023-02-28T15:25:41;10.82;;;8.23;;
10309;SDS011;5200;43.236;27.986;2023-02-28T15:28:11;16.65;;;10.48;;
10309;SDS011;5200;43.236;27.986;2023-02-28T15:30:50;17.90;;;9.98;;
10309;SDS011;5200;43.236;27.986;2023-02-28T15:33:22;13.80;;;10.25;;
10309;SDS011;5200;43.236;27.986;2023-02-28T15:36:02;11.35;;;8.90;;